Terminal Aerodrome Forecast
Issued by NWS

Home | Current Version | Previous Version | Text Only | Print | Product List | Glossary On
Versions: 1 2 3 4 5 6 7 8 9 10 11 12 13 14 15 16 17 18 19 20
000
FTUS43 KGRR 281721
TAFJXN
TAF
KJXN 281721Z 2818/0118 17012KT P6SM OVC006
     FM010000 16014KT 3SM -SHRA BR VCTS OVC008CB
     FM010500 20018G28KT 2SM SHRA VCTS OVC015CB WS020/22040KT
     FM010900 22020G30KT 3SM -SHRA OVC005
     FM011600 24014G24KT 2SM BR OVC015=

USA.gov is the U.S. government's official web portal to all federal, state and local government web resources and services.